This is the latest recevied weather packets stored in our database for station/object VE6EN. If no packets are shown the sender has not sent any weather packets the latest 10 day(s).
| Time | Temp. | Humidity | Pressure | Rain* | Wind** | Luminosity | Snow |
|---|---|---|---|---|---|---|---|
| 1787510400 | 21.67° C | 51% | 1009.8 hPa | 0 mm | - | - | - |
| 1787509804 | 21.11° C | 51% | 1010 hPa | 0 mm | - | - | - |
| 1787509203 | 20.56° C | 52% | 1010.1 hPa | 0 mm | - | - | - |
| 1787508604 | 20° C | 58% | 1010.2 hPa | 0 mm | - | - | - |
| 1787508003 | 20° C | 56% | 1010.5 hPa | 0 mm | - | - | - |
| 1787507403 | 19.44° C | 59% | 1010.4 hPa | 0 mm | - | - | - |
| 1787506803 | 19.44° C | 60% | 1010.5 hPa | 0 mm | - | - | - |
| 1787506203 | 19.44° C | 61% | 1010.3 hPa | 0 mm | - | - | - |
| 1787505603 | 19.44° C | 57% | 1010.6 hPa | 0 mm | - | - | - |
| 1787505003 | 19.44° C | 57% | 1010.7 hPa | 0 mm | - | - | - |
| 1787504403 | 19.44° C | 57% | 1010.5 hPa | 0 mm | - | - | - |
| 1787503803 | 18.89° C | 59% | 1010.6 hPa | 0 mm | - | - | - |
| 1787503204 | 18.89° C | 62% | 1010.8 hPa | 0 mm | - | - | - |
| 1787502604 | 18.33° C | 65% | 1010.8 hPa | 0 mm | - | - | - |
| 1787502007 | 17.78° C | 67% | 1010.8 hPa | 0 mm | - | - | - |
| 1787501404 | 17.22° C | 71% | 1010.9 hPa | 0 mm | - | - | - |
| 1787500809 | 16.67° C | 74% | 1010.9 hPa | 0 mm | - | - | - |
| 1787500203 | 16.11° C | 74% | 1011 hPa | 0 mm | - | - | - |
| 1787499612 | 16.11° C | 75% | 1011.1 hPa | 0 mm | - | - | - |
| 1787499003 | 15° C | 78% | 1010.8 hPa | 0 mm | - | - | - |
| 1787498404 | 15° C | 78% | 1011.1 hPa | 0 mm | - | - | - |
| 1787497817 | 15.56° C | 76% | 1011.2 hPa | 0 mm | - | - | - |
| 1787497204 | 15.56° C | 74% | 1011.2 hPa | 0 mm | - | - | - |
| 1787496608 | 15.56° C | 72% | 1010.9 hPa | 0 mm | - | - | - |
| 1787496003 | 15.56° C | 73% | 1011 hPa | 0 mm | - | - | - |
* Rain latest hour (hover to see other rain measurements)
** Current wind speed in m/s (hover to see current wind gust speed)